createdAt,value
2019-02-26T00:00:59.684Z,6.23
2019-02-26T00:03:28.535Z,6.43
2019-02-26T00:05:56.843Z,6.00
2019-02-26T00:08:26.721Z,6.47
2019-02-26T00:10:56.754Z,6.50
2019-02-26T00:13:25.078Z,6.30
2019-02-26T00:15:53.301Z,6.40
2019-02-26T00:18:21.440Z,6.20
2019-02-26T00:20:49.984Z,6.27
2019-02-26T00:23:19.246Z,6.50
2019-02-26T00:25:46.706Z,6.40
2019-02-26T00:28:15.458Z,7.53
2019-02-26T00:30:43.096Z,7.33
2019-02-26T00:33:10.352Z,7.53
2019-02-26T00:35:39.326Z,7.40
2019-02-26T00:38:08.876Z,7.07
2019-02-26T00:40:37.129Z,6.13
2019-02-26T00:43:06.563Z,6.57
2019-02-26T00:45:34.562Z,7.43
2019-02-26T00:48:03.540Z,7.00
2019-02-26T00:50:33.135Z,7.03
2019-02-26T00:53:01.749Z,7.40
2019-02-26T00:55:29.830Z,7.63
2019-02-26T00:57:59.165Z,7.73
2019-02-26T01:00:28.527Z,7.60
2019-02-26T01:02:57.180Z,7.40
2019-02-26T01:05:24.408Z,7.17
2019-02-26T01:07:52.620Z,7.43
2019-02-26T01:10:21.685Z,7.93
2019-02-26T01:12:50.096Z,7.70
2019-02-26T01:15:17.331Z,8.90
2019-02-26T01:17:44.903Z,8.50
2019-02-26T01:20:13.342Z,8.40
2019-02-26T01:22:42.629Z,8.30
2019-02-26T01:25:10.741Z,8.20
2019-02-26T01:27:41.410Z,8.63
2019-02-26T01:30:10.332Z,8.00
2019-02-26T01:32:37.574Z,8.27
2019-02-26T01:35:06.015Z,7.83
2019-02-26T01:37:36.458Z,8.40
2019-02-26T01:40:07.374Z,8.47
2019-02-26T01:42:33.423Z,7.90
2019-02-26T01:45:00.655Z,8.50
2019-02-26T01:47:28.565Z,7.47
2019-02-26T01:49:55.973Z,7.57
2019-02-26T01:52:23.221Z,7.00
2019-02-26T01:54:51.289Z,7.20
2019-02-26T01:57:19.672Z,7.83
2019-02-26T01:59:49.913Z,7.07
2019-02-26T02:02:18.176Z,8.10
2019-02-26T02:04:45.308Z,7.50
2019-02-26T02:07:12.535Z,7.57
2019-02-26T02:09:40.130Z,7.10
2019-02-26T02:12:08.874Z,7.03
2019-02-26T02:14:36.883Z,7.57
2019-02-26T02:17:06.035Z,7.67
2019-02-26T02:19:33.656Z,7.17
2019-02-26T02:22:01.199Z,7.97
2019-02-26T02:24:28.759Z,7.73
2019-02-26T02:26:57.959Z,7.47
2019-02-26T02:29:28.058Z,7.67
2019-02-26T02:31:55.685Z,7.03
2019-02-26T02:34:26.999Z,7.87
2019-02-26T02:36:52.962Z,6.83
2019-02-26T02:39:20.863Z,7.27
2019-02-26T02:41:51.657Z,6.87
2019-02-26T02:44:20.589Z,6.80
2019-02-26T02:46:48.221Z,6.73
2019-02-26T02:49:17.781Z,7.10
2019-02-26T02:51:44.624Z,7.30
2019-02-26T02:54:14.815Z,7.57
2019-02-26T02:56:42.405Z,6.20
2019-02-26T02:59:11.205Z,6.53
2019-02-26T03:01:39.326Z,6.67
2019-02-26T03:04:06.587Z,6.90
2019-02-26T03:06:35.892Z,6.87
2019-02-26T03:09:11.643Z,7.13
2019-02-26T03:11:41.023Z,6.30
2019-02-26T03:14:08.427Z,6.90
2019-02-26T03:16:39.051Z,6.83
2019-02-26T03:19:07.769Z,7.50
2019-02-26T03:21:35.893Z,6.70
2019-02-26T03:24:05.670Z,6.10
2019-02-26T03:26:32.249Z,6.97
2019-02-26T03:28:59.513Z,6.70
2019-02-26T03:31:33.858Z,6.87
2019-02-26T03:34:04.237Z,6.47
2019-02-26T03:36:25.065Z,7.50
2019-02-26T03:38:54.760Z,7.10
2019-02-26T03:41:23.492Z,7.13
2019-02-26T03:43:51.291Z,6.53
2019-02-26T03:46:18.536Z,6.13
2019-02-26T03:48:46.108Z,6.70
2019-02-26T03:51:17.193Z,6.23
2019-02-26T03:53:44.126Z,6.50
2019-02-26T03:56:14.738Z,6.80
2019-02-26T03:58:40.980Z,6.17
2019-02-26T04:01:10.226Z,6.63
2019-02-26T04:03:39.429Z,7.53
2019-02-26T04:06:09.533Z,6.70
2019-02-26T04:08:36.219Z,6.80
2019-02-26T04:11:03.499Z,6.63
2019-02-26T04:13:30.726Z,7.70
2019-02-26T04:15:59.590Z,7.10
2019-02-26T04:18:27.871Z,7.00
2019-02-26T04:20:56.823Z,6.80
2019-02-26T04:23:24.404Z,7.23
2019-02-26T04:26:10.447Z,6.70
2019-02-26T04:28:48.685Z,6.80
2019-02-26T04:32:12.213Z,6.40
2019-02-26T04:35:02.457Z,7.37
2019-02-26T04:38:28.469Z,7.27
2019-02-26T04:41:12.407Z,7.30
2019-02-26T04:44:15.835Z,7.80
2019-02-26T04:47:17.785Z,7.50
2019-02-26T04:49:46.275Z,6.77
2019-02-26T04:52:14.275Z,8.10
2019-02-26T04:54:43.696Z,7.57
2019-02-26T04:57:11.639Z,7.33
2019-02-26T04:59:41.273Z,8.03
2019-02-26T05:02:08.356Z,7.43
2019-02-26T05:04:36.889Z,7.30
2019-02-26T05:07:07.514Z,6.37
2019-02-26T05:09:35.453Z,7.23
2019-02-26T05:12:02.925Z,6.73
2019-02-26T05:14:30.192Z,6.63
2019-02-26T05:16:57.533Z,6.53
2019-02-26T05:19:25.118Z,6.30
2019-02-26T05:21:53.525Z,6.63
2019-02-26T05:24:24.408Z,6.57
2019-02-26T05:26:51.197Z,7.33
2019-02-26T05:29:20.560Z,7.90
2019-02-26T05:31:47.865Z,7.07
2019-02-26T05:34:18.208Z,6.90
2019-02-26T05:36:46.154Z,7.47
2019-02-26T05:39:14.555Z,7.17
2019-02-26T05:41:42.977Z,6.77
2019-02-26T05:44:10.819Z,7.30
2019-02-26T05:46:38.492Z,6.73
2019-02-26T05:49:09.750Z,6.40
2019-02-26T05:51:36.044Z,6.17
2019-02-26T05:54:07.696Z,6.13
2019-02-26T05:56:34.083Z,6.90
2019-02-26T05:59:06.845Z,6.73
2019-02-26T06:01:32.300Z,7.00
2019-02-26T06:03:59.903Z,7.53
2019-02-26T06:06:27.165Z,8.40
2019-02-26T06:08:55.191Z,7.50
2019-02-26T06:11:28.329Z,7.77
2019-02-26T06:13:55.527Z,8.20
2019-02-26T06:16:24.238Z,7.53
2019-02-26T06:18:51.880Z,8.20
2019-02-26T06:21:20.971Z,7.77
2019-02-26T06:23:53.132Z,8.50
2019-02-26T06:26:20.783Z,8.50
2019-02-26T06:28:52.737Z,8.00
2019-02-26T06:31:22.180Z,8.17
2019-02-26T06:33:50.616Z,8.60
2019-02-26T06:36:19.233Z,7.97
2019-02-26T06:38:49.612Z,9.13
2019-02-26T06:41:16.491Z,9.50
2019-02-26T06:43:47.708Z,8.40
2019-02-26T06:46:14.158Z,7.87
2019-02-26T06:48:41.739Z,7.57
2019-02-26T06:51:08.994Z,7.87
2019-02-26T06:53:36.580Z,8.00
2019-02-26T06:56:04.139Z,9.00
2019-02-26T06:58:31.376Z,8.67
2019-02-26T07:00:59.038Z,8.27
2019-02-26T07:03:26.279Z,7.40
2019-02-26T07:05:53.861Z,9.00
2019-02-26T07:08:22.005Z,7.50
2019-02-26T07:10:50.252Z,8.37
2019-02-26T07:13:17.587Z,8.33
2019-02-26T07:15:45.529Z,7.90
2019-02-26T07:18:16.938Z,10.53
2019-02-26T07:20:46.640Z,9.70
2019-02-26T07:23:12.941Z,9.50
2019-02-26T07:25:43.978Z,9.67
2019-02-26T07:28:10.772Z,9.40
2019-02-26T07:30:39.984Z,9.07
2019-02-26T07:33:08.032Z,9.07
2019-02-26T07:35:37.387Z,8.97
2019-02-26T07:38:05.228Z,8.73
2019-02-26T07:40:33.027Z,9.43
2019-02-26T07:43:04.913Z,8.80
2019-02-26T07:45:32.170Z,8.67
2019-02-26T07:48:00.970Z,7.80
2019-02-26T07:50:31.392Z,8.13
2019-02-26T07:52:59.354Z,8.50
2019-02-26T07:55:27.672Z,8.67
2019-02-26T07:57:55.215Z,8.03
2019-02-26T08:00:23.200Z,7.87
2019-02-26T08:02:52.041Z,8.00
2019-02-26T08:05:21.213Z,8.13
2019-02-26T08:07:51.319Z,9.23
2019-02-26T08:10:19.510Z,7.77
2019-02-26T08:12:47.468Z,7.83
2019-02-26T08:15:15.747Z,9.40
2019-02-26T08:17:45.660Z,12.13
2019-02-26T08:20:14.895Z,11.40
2019-02-26T08:22:42.431Z,12.27
2019-02-26T08:25:09.972Z,11.13
2019-02-26T08:27:37.894Z,10.33
2019-02-26T08:30:08.819Z,10.13
2019-02-26T08:32:36.541Z,11.20
2019-02-26T08:35:04.690Z,10.60
2019-02-26T08:37:32.252Z,10.30
2019-02-26T08:39:59.807Z,10.77
2019-02-26T08:42:27.049Z,10.83
2019-02-26T08:44:55.911Z,11.30
2019-02-26T08:47:23.591Z,11.00
2019-02-26T08:49:51.277Z,11.73
2019-02-26T08:52:21.519Z,10.37
2019-02-26T08:54:47.956Z,10.60
2019-02-26T08:57:15.694Z,10.00
2019-02-26T08:59:45.457Z,9.77
2019-02-26T09:02:12.063Z,9.37
2019-02-26T09:04:40.715Z,9.73
2019-02-26T09:07:08.442Z,10.00
2019-02-26T09:09:35.690Z,10.13
2019-02-26T09:12:03.328Z,9.90
2019-02-26T09:14:34.487Z,9.47
2019-02-26T09:17:01.937Z,11.13
2019-02-26T09:19:30.394Z,10.13
2019-02-26T09:21:58.774Z,12.93
2019-02-26T09:24:26.096Z,11.70
2019-02-26T09:26:54.949Z,11.80
2019-02-26T09:29:22.823Z,11.17
2019-02-26T09:31:50.323Z,12.60
2019-02-26T09:34:17.544Z,12.17
2019-02-26T09:36:45.805Z,11.87
2019-02-26T09:39:15.445Z,11.80
2019-02-26T09:41:45.427Z,10.47
2019-02-26T09:44:12.516Z,10.23
2019-02-26T09:46:41.928Z,10.90
2019-02-26T09:49:10.512Z,10.57
2019-02-26T09:51:40.007Z,10.20
2019-02-26T09:54:07.268Z,10.27
2019-02-26T09:56:34.509Z,9.70
2019-02-26T09:59:02.474Z,9.10
2019-02-26T10:01:33.139Z,8.73
2019-02-26T10:04:01.298Z,10.10
2019-02-26T10:06:29.457Z,8.97
2019-02-26T10:08:57.048Z,8.50
2019-02-26T10:11:26.120Z,8.73
2019-02-26T10:13:53.319Z,9.47
2019-02-26T10:16:21.708Z,8.93
2019-02-26T10:18:52.539Z,8.93
2019-02-26T10:21:20.556Z,7.70
2019-02-26T10:23:51.472Z,8.33
2019-02-26T10:26:17.511Z,7.70
2019-02-26T10:28:46.801Z,7.47
2019-02-26T10:31:14.165Z,7.10
2019-02-26T10:33:43.954Z,6.93
2019-02-26T10:36:12.973Z,7.10
2019-02-26T10:38:39.695Z,6.03
2019-02-26T10:41:06.927Z,5.90
2019-02-26T10:43:34.177Z,5.90
2019-02-26T10:46:01.392Z,5.43
2019-02-26T10:48:28.645Z,5.33
2019-02-26T10:50:55.905Z,4.60
2019-02-26T10:53:23.563Z,4.50
2019-02-26T10:55:50.861Z,3.77
2019-02-26T10:58:18.123Z,2.90
2019-02-26T11:00:46.235Z,3.07
2019-02-26T11:03:14.921Z,2.93
2019-02-26T11:05:45.025Z,3.13
2019-02-26T11:08:11.884Z,3.00
2019-02-26T11:10:41.874Z,2.73
2019-02-26T11:13:08.257Z,2.50
2019-02-26T11:15:36.023Z,2.20
2019-02-26T11:18:03.431Z,2.37
2019-02-26T11:20:33.890Z,2.87
2019-02-26T11:22:59.888Z,2.77
2019-02-26T11:25:27.726Z,2.60
2019-02-26T11:27:55.402Z,3.20
2019-02-26T11:30:23.881Z,2.83
2019-02-26T11:32:56.013Z,2.47
2019-02-26T11:35:22.539Z,2.87
2019-02-26T11:37:52.228Z,2.67
2019-02-26T11:40:20.334Z,2.50
2019-02-26T11:42:49.339Z,3.00
2019-02-26T11:45:19.345Z,3.90
2019-02-26T11:47:47.127Z,3.43
2019-02-26T11:50:16.124Z,3.83
2019-02-26T11:52:43.356Z,3.33
2019-02-26T11:55:11.381Z,3.17
2019-02-26T11:57:39.901Z,3.57
2019-02-26T12:00:31.310Z,4.47
2019-02-26T12:02:55.735Z,3.20
2019-02-26T12:05:24.968Z,3.60
2019-02-26T12:07:53.833Z,4.43
2019-02-26T12:10:21.592Z,4.37
2019-02-26T12:12:51.419Z,3.23
2019-02-26T12:15:18.297Z,3.80
2019-02-26T12:17:49.243Z,4.40
2019-02-26T12:20:19.643Z,4.60
2019-02-26T12:22:48.027Z,4.20
2019-02-26T12:25:16.244Z,3.50
2019-02-26T12:27:45.614Z,5.40
2019-02-26T12:30:17.598Z,4.30
2019-02-26T12:32:47.262Z,5.33
2019-02-26T12:35:17.210Z,5.10
2019-02-26T12:37:43.068Z,5.33
2019-02-26T12:40:13.124Z,5.77
2019-02-26T12:42:40.445Z,4.43
2019-02-26T12:45:10.103Z,5.03
2019-02-26T12:47:40.689Z,4.70
2019-02-26T12:50:11.532Z,5.40
2019-02-26T12:52:38.756Z,5.83
2019-02-26T12:55:08.024Z,6.23
2019-02-26T12:57:35.715Z,6.80
2019-02-26T13:00:04.289Z,5.03
2019-02-26T13:02:31.863Z,5.60
2019-02-26T13:04:59.521Z,5.03
2019-02-26T13:07:27.079Z,6.30
2019-02-26T13:09:59.685Z,6.37
2019-02-26T13:12:28.844Z,7.00
2019-02-26T13:14:54.589Z,7.20
2019-02-26T13:17:26.176Z,7.53
2019-02-26T13:19:57.556Z,7.43
2019-02-26T13:22:20.849Z,7.00
2019-02-26T13:24:48.499Z,6.83
2019-02-26T13:27:15.812Z,7.63
2019-02-26T13:29:54.031Z,7.57
2019-02-26T13:32:13.653Z,7.50
2019-02-26T13:34:41.294Z,7.33
2019-02-26T13:37:08.508Z,7.47
2019-02-26T13:39:38.633Z,7.10
2019-02-26T13:44:34.592Z,8.17
2019-02-26T13:47:01.899Z,8.00
2019-02-26T13:49:29.410Z,6.97
2019-02-26T13:51:56.672Z,6.10
2019-02-26T13:54:23.902Z,8.07
2019-02-26T13:56:51.165Z,5.63
2019-02-26T13:59:18.497Z,6.37
2019-02-26T14:01:45.827Z,7.10
2019-02-26T14:04:13.220Z,5.83
2019-02-26T14:06:40.446Z,6.67
2019-02-26T14:09:07.931Z,6.40
2019-02-26T14:11:35.236Z,7.23
2019-02-26T14:14:04.285Z,5.63
2019-02-26T14:16:32.615Z,6.50
2019-02-26T14:19:00.088Z,7.20
2019-02-26T14:21:27.694Z,6.20
2019-02-26T14:23:55.335Z,14.50
2019-02-26T14:26:23.201Z,5.50
2019-02-26T14:28:50.432Z,4.83
2019-02-26T14:31:18.072Z,5.20
2019-02-26T14:33:45.300Z,4.93
2019-02-26T14:36:12.637Z,4.37
2019-02-26T14:38:40.198Z,4.13
2019-02-26T14:41:07.454Z,4.37
2019-02-26T14:43:34.695Z,4.07
2019-02-26T14:46:01.959Z,6.77
2019-02-26T14:48:29.280Z,5.20
2019-02-26T14:50:56.534Z,5.17
2019-02-26T14:53:24.192Z,6.30
2019-02-26T14:55:53.107Z,6.23
2019-02-26T14:58:20.560Z,5.10
2019-02-26T15:00:57.129Z,5.47
2019-02-26T15:03:17.278Z,5.00
2019-02-26T15:05:45.064Z,4.63
2019-02-26T15:08:12.279Z,4.63
2019-02-26T15:10:40.184Z,5.07
2019-02-26T15:13:07.631Z,4.67
2019-02-26T15:15:35.199Z,5.27
2019-02-26T15:18:02.533Z,4.43
2019-02-26T15:20:30.337Z,4.20
2019-02-26T15:22:57.776Z,3.60
2019-02-26T15:25:25.045Z,3.20
2019-02-26T15:27:52.358Z,4.30
2019-02-26T15:30:20.350Z,4.40
2019-02-26T15:32:47.942Z,5.00
2019-02-26T15:35:15.185Z,5.23
2019-02-26T15:37:42.720Z,4.40
2019-02-26T15:40:10.657Z,4.67
2019-02-26T15:42:37.888Z,5.30
2019-02-26T15:45:08.367Z,4.60
2019-02-26T15:47:35.931Z,5.47
2019-02-26T15:50:04.157Z,4.77
2019-02-26T15:52:31.792Z,4.40
2019-02-26T15:54:59.249Z,4.03
2019-02-26T15:57:28.596Z,5.90
2019-02-26T15:59:57.088Z,4.30
2019-02-26T16:02:25.957Z,4.87
2019-02-26T16:04:54.112Z,5.27
2019-02-26T16:07:21.415Z,5.17
2019-02-26T16:09:48.973Z,5.20
2019-02-26T16:12:16.247Z,5.00
2019-02-26T16:14:43.775Z,4.67
2019-02-26T16:17:11.361Z,4.60
2019-02-26T16:19:38.931Z,5.30
2019-02-26T16:22:06.151Z,5.13
2019-02-26T16:24:33.730Z,5.57
2019-02-26T16:27:01.717Z,5.70
2019-02-26T16:29:29.230Z,4.80
2019-02-26T16:31:57.323Z,5.13
2019-02-26T16:34:24.676Z,5.20
2019-02-26T16:36:52.632Z,4.57
2019-02-26T16:39:22.533Z,5.20
2019-02-26T16:41:49.945Z,4.90
2019-02-26T16:44:17.257Z,5.93
2019-02-26T16:46:44.811Z,5.63
2019-02-26T16:49:12.036Z,5.27
2019-02-26T16:51:39.315Z,5.13
2019-02-26T16:54:07.498Z,4.93
2019-02-26T16:56:35.601Z,4.50
2019-02-26T16:59:02.824Z,4.10
2019-02-26T17:01:30.477Z,4.37
2019-02-26T17:03:58.037Z,4.00
2019-02-26T17:06:25.268Z,4.00
2019-02-26T17:08:52.567Z,4.00
2019-02-26T17:11:20.120Z,3.83
2019-02-26T17:13:47.368Z,3.70
2019-02-26T17:16:14.712Z,4.03
2019-02-26T17:18:42.890Z,3.53
2019-02-26T17:21:10.731Z,5.07
2019-02-26T17:23:37.993Z,4.97
2019-02-26T17:26:06.161Z,3.90
2019-02-26T17:28:35.029Z,4.17
2019-02-26T17:31:02.556Z,4.37
2019-02-26T17:33:30.840Z,4.53
2019-02-26T17:35:59.590Z,4.70
2019-02-26T17:38:31.980Z,4.33
2019-02-26T17:40:59.409Z,3.97
2019-02-26T17:43:26.723Z,4.10
2019-02-26T17:45:54.344Z,3.87
2019-02-26T17:48:21.981Z,4.03
2019-02-26T17:50:49.285Z,4.03
2019-02-26T17:53:16.804Z,4.37
2019-02-26T17:55:44.358Z,4.00
2019-02-26T17:58:11.789Z,3.97
2019-02-26T18:00:41.416Z,3.93
2019-02-26T18:03:19.171Z,4.00
2019-02-26T18:05:51.295Z,4.07
2019-02-26T18:08:18.814Z,4.30
2019-02-26T18:10:45.159Z,3.97
2019-02-26T18:13:12.727Z,4.03
2019-02-26T18:15:40.232Z,4.97
2019-02-26T18:18:07.468Z,5.40
2019-02-26T18:20:34.726Z,5.23
2019-02-26T18:23:02.492Z,5.50
2019-02-26T18:25:29.751Z,4.23
2019-02-26T18:27:57.094Z,4.47
2019-02-26T18:30:24.431Z,4.80
2019-02-26T18:32:55.642Z,4.40
2019-02-26T18:35:20.892Z,4.43
2019-02-26T18:37:48.440Z,4.40
2019-02-26T18:40:15.981Z,4.20
2019-02-26T18:42:43.419Z,3.97
2019-02-26T18:45:16.629Z,3.90
2019-02-26T18:47:43.865Z,4.40
2019-02-26T18:50:11.128Z,4.47
2019-02-26T18:52:41.396Z,5.00
2019-02-26T18:55:10.043Z,4.63
2019-02-26T18:57:37.273Z,4.90
2019-02-26T19:00:06.560Z,4.97
2019-02-26T19:02:35.995Z,5.40
2019-02-26T19:05:03.956Z,5.70
2019-02-26T19:07:33.825Z,5.73
2019-02-26T19:10:00.756Z,5.90
2019-02-26T19:12:30.256Z,5.90
2019-02-26T19:14:57.108Z,6.60
2019-02-26T19:17:26.829Z,6.40
2019-02-26T19:19:53.947Z,6.57
2019-02-26T19:22:21.201Z,6.97
2019-02-26T19:24:48.421Z,7.77
2019-02-26T19:27:19.127Z,7.80
2019-02-26T19:29:45.128Z,9.40
2019-02-26T19:32:15.422Z,9.80
2019-02-26T19:34:41.925Z,8.37
2019-02-26T19:37:09.495Z,7.43
2019-02-26T19:39:36.720Z,7.20
2019-02-26T19:42:04.313Z,6.70
2019-02-26T19:44:35.721Z,6.30
2019-02-26T19:47:00.965Z,6.70
2019-02-26T19:49:28.233Z,7.50
2019-02-26T19:51:55.872Z,7.20
2019-02-26T19:54:23.437Z,6.90
2019-02-26T19:56:50.709Z,7.57
2019-02-26T19:59:18.360Z,7.03
2019-02-26T20:01:45.889Z,7.40
2019-02-26T20:04:13.321Z,7.90
2019-02-26T20:06:40.649Z,6.60
2019-02-26T20:09:08.185Z,8.20
2019-02-26T20:11:35.734Z,7.80
2019-02-26T20:14:04.886Z,7.17
2019-02-26T20:16:32.208Z,7.47
2019-02-26T20:18:59.756Z,6.53
2019-02-26T20:21:27.161Z,7.13
2019-02-26T20:23:54.412Z,7.03
2019-02-26T20:26:21.661Z,7.33
2019-02-26T20:28:48.883Z,6.97
2019-02-26T20:31:16.137Z,7.47
2019-02-26T20:33:43.766Z,7.40
2019-02-26T20:36:10.997Z,6.50
2019-02-26T20:38:38.267Z,7.13
2019-02-26T20:41:05.936Z,7.27
2019-02-26T20:43:36.373Z,7.83
2019-02-26T20:46:02.627Z,8.40
2019-02-26T20:48:29.848Z,8.40
2019-02-26T20:50:57.398Z,9.10
2019-02-26T20:53:24.956Z,7.70
2019-02-26T20:55:52.991Z,6.90
2019-02-26T20:58:22.220Z,6.37
2019-02-26T21:00:49.536Z,6.23
2019-02-26T21:03:16.759Z,5.83
2019-02-26T21:05:44.662Z,5.93
2019-02-26T21:08:13.283Z,6.60
2019-02-26T21:10:40.496Z,6.33
2019-02-26T21:13:08.116Z,6.73
2019-02-26T21:15:35.370Z,5.93
2019-02-26T21:18:02.654Z,6.70
2019-02-26T21:20:29.877Z,6.50
2019-02-26T21:22:57.518Z,6.30
2019-02-26T21:25:24.747Z,6.63
2019-02-26T21:27:51.988Z,6.60
2019-02-26T21:30:19.564Z,5.57
2019-02-26T21:32:47.134Z,6.30
2019-02-26T21:35:14.367Z,5.87
2019-02-26T21:37:41.615Z,5.53
2019-02-26T21:40:09.163Z,5.63
2019-02-26T21:42:36.387Z,5.63
2019-02-26T21:45:04.532Z,6.17
2019-02-26T21:47:31.755Z,5.50
2019-02-26T21:49:59.223Z,5.63
2019-02-26T21:52:26.463Z,5.07
2019-02-26T21:54:57.726Z,5.33
2019-02-26T21:57:22.849Z,5.27
2019-02-26T21:59:50.329Z,4.63
2019-02-26T22:02:18.840Z,5.63
2019-02-26T22:04:46.796Z,5.07
2019-02-26T22:07:14.056Z,5.77
2019-02-26T22:09:41.973Z,6.20
2019-02-26T22:12:09.500Z,6.20
2019-02-26T22:14:37.442Z,6.17
2019-02-26T22:17:05.140Z,6.20
2019-02-26T22:19:32.404Z,5.83
2019-02-26T22:21:59.650Z,6.27
2019-02-26T22:24:27.229Z,5.87
2019-02-26T22:26:59.405Z,6.43
2019-02-26T22:29:24.048Z,5.83
2019-02-26T22:31:51.296Z,5.60
2019-02-26T22:34:19.001Z,5.53
2019-02-26T22:36:47.755Z,5.17
2019-02-26T22:39:15.028Z,4.87
2019-02-26T22:41:42.256Z,4.93
2019-02-26T22:44:09.496Z,5.97
2019-02-26T22:46:36.773Z,4.70
2019-02-26T22:49:04.139Z,4.67
2019-02-26T22:51:31.683Z,4.57
2019-02-26T22:53:59.230Z,4.27
2019-02-26T22:56:26.592Z,4.20
2019-02-26T22:58:53.824Z,4.20
2019-02-26T23:01:30.804Z,4.00
2019-02-26T23:03:57.663Z,4.50
2019-02-26T23:06:24.911Z,4.63
2019-02-26T23:08:52.356Z,4.47
2019-02-26T23:11:20.237Z,6.67
2019-02-26T23:13:48.210Z,7.00
2019-02-26T23:16:18.453Z,5.83
2019-02-26T23:18:45.983Z,4.87
2019-02-26T23:21:15.499Z,4.70
2019-02-26T23:23:42.596Z,4.50
2019-02-26T23:26:09.960Z,4.93
2019-02-26T23:28:37.408Z,4.23
2019-02-26T23:31:06.338Z,4.03
2019-02-26T23:33:33.919Z,3.93
2019-02-26T23:36:01.671Z,3.80
2019-02-26T23:38:28.967Z,4.10
2019-02-26T23:40:58.190Z,5.07
2019-02-26T23:43:25.689Z,6.30
2019-02-26T23:45:56.823Z,6.03
2019-02-26T23:48:22.469Z,5.07
2019-02-26T23:50:49.724Z,4.80
2019-02-26T23:53:16.940Z,4.10
2019-02-26T23:55:47.230Z,5.60
2019-02-26T23:58:13.589Z,7.57
